Time;durP1;ratioP1;P1;durP2;ratioP2;P2;SDS_P1;SDS_P2;PMS_P1;PMS_P2;Temp;Humidity;BMP_temperature;BMP_pressure;BME280_temperature;BME280_humidity;BME280_pressure;Samples;Min_cycle;Max_cycle;Signal;HPM_P1;HPM_P2
2023/09/16 00:02:24;;;;;;;13.43;12.00;;;;;;;21.24;57.11;94232.69;4993711;28;20736;-78
2023/09/16 00:04:51;;;;;;;15.40;12.32;;;;;;;21.11;57.14;94204.34;4992736;28;20038;-79
2023/09/16 00:07:16;;;;;;;15.82;12.30;;;;;;;21.25;57.30;94215.31;4982068;28;20117;-78
2023/09/16 00:09:42;;;;;;;17.10;12.95;;;;;;;21.28;56.99;94198.31;4992153;28;20049;-79
2023/09/16 00:12:08;;;;;;;14.75;12.05;;;;;;;21.35;57.48;94213.84;4996799;28;20481;-79
2023/09/16 00:14:33;;;;;;;16.02;13.45;;;;;;;21.08;57.95;94188.84;4996077;28;20168;-78
2023/09/16 00:17:00;;;;;;;13.43;11.77;;;;;;;21.28;57.49;94225.38;4992798;28;20900;-79
2023/09/16 00:19:26;;;;;;;16.23;12.43;;;;;;;21.30;57.49;94212.28;4997346;28;20041;-80
2023/09/16 00:21:51;;;;;;;14.60;11.10;;;;;;;21.23;57.49;94197.88;4993388;28;20030;-79
2023/09/16 00:24:18;;;;;;;13.82;11.77;;;;;;;21.20;58.14;94210.22;4995681;28;20029;-78
2023/09/16 00:26:43;;;;;;;13.45;11.85;;;;;;;20.94;57.78;94181.34;4994002;28;20056;-78
2023/09/16 00:29:09;;;;;;;21.45;13.52;;;;;;;21.03;57.70;94200.75;4995980;28;20796;-79
2023/09/16 00:31:36;;;;;;;13.27;11.85;;;;;;;21.25;57.78;94230.75;4992593;28;20149;-79
2023/09/16 00:34:02;;;;;;;14.70;11.98;;;;;;;21.18;57.90;94228.75;4998189;28;20124;-79
2023/09/16 00:36:28;;;;;;;17.15;12.45;;;;;;;21.09;58.23;94225.56;4994311;28;20080;-79
2023/09/16 00:38:53;;;;;;;15.30;11.70;;;;;;;21.17;58.29;94234.53;4975934;28;21080;-79
2023/09/16 00:41:19;;;;;;;15.57;12.07;;;;;;;21.05;58.26;94216.63;4993317;28;20030;-79
2023/09/16 00:43:44;;;;;;;11.93;10.55;;;;;;;21.08;58.47;94228.63;4993454;28;20052;-79
2023/09/16 00:46:09;;;;;;;14.10;12.77;;;;;;;21.17;57.95;94224.47;4997117;28;20559;-79
2023/09/16 00:48:35;;;;;;;12.60;11.30;;;;;;;21.16;57.62;94219.47;4996826;28;20029;-79
2023/09/16 00:51:01;;;;;;;13.88;12.32;;;;;;;21.17;58.27;94248.81;4995178;28;20022;-80
2023/09/16 00:53:27;;;;;;;13.18;11.65;;;;;;;21.00;57.98;94227.78;4993826;28;20241;-80
2023/09/16 00:55:53;;;;;;;13.00;11.60;;;;;;;20.99;57.84;94227.00;4995016;28;20866;-79
2023/09/16 00:58:19;;;;;;;17.25;12.27;;;;;;;20.86;57.74;94195.91;4993826;28;20156;-79
2023/09/16 01:00:47;;;;;;;13.25;11.27;;;;;;;20.91;58.04;94206.44;4995874;28;20044;-79
2023/09/16 01:03:15;;;;;;;13.35;11.95;;;;;;;21.00;58.08;94217.75;4991293;28;20065;-78
2023/09/16 01:05:45;;;;;;;13.18;11.82;;;;;;;20.84;57.71;94186.59;4976115;28;20050;-79
2023/09/16 01:08:12;;;;;;;17.02;11.77;;;;;;;21.06;57.66;94220.13;4994217;28;20078;-80
2023/09/16 01:10:40;;;;;;;14.80;11.45;;;;;;;20.93;57.47;94196.00;4995202;28;20042;-79
2023/09/16 01:13:06;;;;;;;14.82;11.63;;;;;;;20.97;58.07;94196.06;4997591;28;20037;-80
2023/09/16 01:15:39;;;;;;;16.35;11.98;;;;;;;21.00;57.38;94198.03;4993805;28;20551;-80
2023/09/16 01:18:24;;;;;;;15.73;11.93;;;;;;;20.96;57.54;94197.22;4994746;28;20037;-79
2023/09/16 01:20:49;;;;;;;13.93;12.48;;;;;;;20.88;57.73;94188.22;4995188;28;20041;-79
2023/09/16 01:23:18;;;;;;;12.15;10.93;;;;;;;20.92;57.31;94182.88;4994392;28;20041;-77
2023/09/16 01:25:44;;;;;;;16.50;11.48;;;;;;;20.91;56.78;94186.72;4982957;28;20031;-77
2023/09/16 01:28:09;;;;;;;13.38;11.55;;;;;;;20.98;56.89;94192.97;4975415;28;20043;-79
2023/09/16 01:30:39;;;;;;;14.40;11.27;;;;;;;20.96;57.25;94189.88;4959908;28;20144;-78
2023/09/16 01:33:21;;;;;;;16.60;12.63;;;;;;;20.96;57.01;94187.19;4958675;28;20437;-77
2023/09/16 01:35:50;;;;;;;13.38;11.95;;;;;;;20.94;57.29;94183.28;4973308;28;20072;-76
2023/09/16 01:38:20;;;;;;;13.30;10.77;;;;;;;20.91;57.38;94192.91;4974016;28;20537;-78
2023/09/16 01:40:50;;;;;;;14.15;12.00;;;;;;;20.93;57.48;94195.22;4973898;28;20038;-78
2023/09/16 01:43:15;;;;;;;14.63;12.52;;;;;;;20.96;56.75;94186.41;4974376;28;20039;-77
2023/09/16 01:45:42;;;;;;;13.23;11.77;;;;;;;20.94;56.68;94180.56;4979023;28;20026;-78
2023/09/16 01:48:07;;;;;;;15.27;10.93;;;;;;;20.99;56.35;94212.69;4977646;28;20061;-78
2023/09/16 01:50:33;;;;;;;13.15;10.95;;;;;;;20.88;56.25;94209.84;4964502;28;20042;-77
2023/09/16 01:52:59;;;;;;;16.38;13.27;;;;;;;20.75;56.52;94199.63;4977922;28;20088;-79
2023/09/16 01:55:24;;;;;;;12.70;11.40;;;;;;;20.84;56.69;94225.22;4980163;28;20573;-78
2023/09/16 01:57:50;;;;;;;13.48;12.10;;;;;;;20.71;57.03;94210.41;4977771;28;20038;-79
2023/09/16 02:00:15;;;;;;;14.38;12.38;;;;;;;20.69;57.43;94228.91;4977397;28;20026;-78
2023/09/16 02:02:41;;;;;;;13.73;12.35;;;;;;;20.60;57.10;94221.06;4976445;28;20052;-78
2023/09/16 02:05:07;;;;;;;14.05;11.10;;;;;;;20.62;57.10;94217.22;4976676;28;20514;-78
2023/09/16 02:07:32;;;;;;;15.02;12.48;;;;;;;20.68;57.09;94232.00;4978854;28;20046;-79
2023/09/16 02:09:57;;;;;;;13.82;11.98;;;;;;;20.48;57.57;94212.44;4978497;28;20034;-78
2023/09/16 02:12:23;;;;;;;13.25;11.68;;;;;;;20.47;57.52;94208.94;4960129;28;20081;-78
2023/09/16 02:14:51;;;;;;;13.65;11.95;;;;;;;20.60;56.92;94223.78;4977917;28;21002;-78
2023/09/16 02:17:17;;;;;;;12.85;11.55;;;;;;;20.53;56.88;94218.28;4976857;28;20766;-79
2023/09/16 02:19:43;;;;;;;15.07;11.57;;;;;;;20.64;57.60;94225.72;4977775;28;20531;-78
2023/09/16 02:22:09;;;;;;;13.40;11.98;;;;;;;20.65;57.33;94227.31;4972730;28;20053;-79
2023/09/16 02:24:34;;;;;;;12.60;11.23;;;;;;;20.70;57.25;94221.56;4978032;28;20033;-78
2023/09/16 02:26:59;;;;;;;13.40;10.95;;;;;;;20.59;57.10;94207.91;4977309;28;20037;-77
2023/09/16 02:29:25;;;;;;;12.23;11.02;;;;;;;20.68;57.26;94232.75;4974899;28;20050;-78
2023/09/16 02:31:50;;;;;;;12.65;10.82;;;;;;;20.71;56.95;94228.53;4978538;28;20038;-77
2023/09/16 02:34:15;;;;;;;15.30;11.75;;;;;;;20.78;56.63;94215.09;4961362;28;20035;-78
2023/09/16 02:36:42;;;;;;;12.85;10.95;;;;;;;20.59;56.23;94205.22;4957937;28;20030;-78
2023/09/16 02:39:07;;;;;;;14.25;10.98;;;;;;;20.53;57.11;94209.41;4977958;28;20093;-78
2023/09/16 02:41:32;;;;;;;14.50;11.30;;;;;;;20.55;57.16;94223.31;4978121;28;21020;-78
2023/09/16 02:43:58;;;;;;;12.43;11.13;;;;;;;20.59;57.27;94233.03;4973548;28;20078;-78
2023/09/16 02:46:23;;;;;;;14.40;12.45;;;;;;;20.63;57.07;94235.75;4977420;28;20043;-78
2023/09/16 02:48:48;;;;;;;13.93;12.25;;;;;;;20.56;57.04;94236.47;4978215;28;20046;-78
2023/09/16 02:51:15;;;;;;;13.95;11.88;;;;;;;20.60;57.30;94245.41;4977550;28;20037;-77
2023/09/16 02:53:40;;;;;;;14.95;11.90;;;;;;;20.63;57.07;94248.53;4978217;28;20641;-78
2023/09/16 02:56:08;;;;;;;15.68;12.25;;;;;;;20.65;57.15;94255.09;4972359;28;20073;-77
2023/09/16 02:58:34;;;;;;;13.73;12.32;;;;;;;20.60;57.41;94241.91;4977203;28;20047;-78
2023/09/16 03:00:59;;;;;;;14.45;11.80;;;;;;;20.78;56.89;94252.94;4975327;28;20070;-79
2023/09/16 03:03:24;;;;;;;15.65;12.45;;;;;;;20.80;56.76;94262.25;4975771;28;20565;-79
2023/09/16 03:05:50;;;;;;;17.73;12.82;;;;;;;20.66;56.71;94242.38;4959119;28;20038;-78
2023/09/16 03:08:15;;;;;;;18.05;12.57;;;;;;;20.64;56.95;94241.94;4976768;28;20495;-78
2023/09/16 03:10:41;;;;;;;14.75;13.10;;;;;;;20.68;57.00;94253.59;4974536;28;20407;-78
2023/09/16 03:13:06;;;;;;;18.35;13.73;;;;;;;20.67;57.10;94252.03;4977928;28;20061;-78
2023/09/16 03:15:35;;;;;;;17.00;13.40;;;;;;;20.73;57.10;94259.44;4973722;28;20025;-78
2023/09/16 03:18:00;;;;;;;16.40;12.40;;;;;;;20.81;56.57;94265.75;4967419;28;20022;-78
2023/09/16 03:20:25;;;;;;;14.20;12.65;;;;;;;20.75;56.67;94259.09;4956128;28;20494;-77
2023/09/16 03:22:51;;;;;;;18.52;14.05;;;;;;;20.70;57.20;94251.31;4977584;28;20030;-78
2023/09/16 03:25:16;;;;;;;13.63;12.00;;;;;;;20.79;57.06;94254.50;4974651;28;20062;-77
2023/09/16 03:27:41;;;;;;;15.65;13.10;;;;;;;20.78;57.00;94252.94;4977388;28;20038;-78
2023/09/16 03:30:07;;;;;;;21.67;13.60;;;;;;;20.66;56.73;94232.34;4975236;28;20690;-78
2023/09/16 03:32:33;;;;;;;18.45;13.48;;;;;;;20.81;57.03;94255.72;4974590;28;20600;-78
2023/09/16 03:34:58;;;;;;;12.80;11.40;;;;;;;20.74;56.91;94246.72;4952682;28;20824;-78
2023/09/16 03:37:23;;;;;;;16.17;13.40;;;;;;;20.72;57.48;94252.50;4975309;28;20449;-79
2023/09/16 03:39:49;;;;;;;16.63;14.23;;;;;;;20.77;56.82;94270.31;4974327;28;20049;-78
2023/09/16 03:42:14;;;;;;;15.48;12.93;;;;;;;20.75;56.50;94264.50;4971513;28;20026;-78
2023/09/16 03:44:40;;;;;;;15.30;13.55;;;;;;;20.58;56.43;94234.16;4975586;28;20502;-78
2023/09/16 03:47:07;;;;;;;18.10;13.70;;;;;;;20.80;56.41;94277.69;4974924;28;20074;-78
2023/09/16 03:49:33;;;;;;;16.48;14.75;;;;;;;20.74;57.10;94265.63;4983204;28;20030;-79
2023/09/16 03:51:58;;;;;;;13.15;11.85;;;;;;;20.78;57.10;94269.16;4992572;28;20034;-78
2023/09/16 03:54:23;;;;;;;14.90;12.65;;;;;;;20.64;57.30;94252.75;4996661;28;20028;-79
2023/09/16 03:56:49;;;;;;;15.00;13.20;;;;;;;20.59;57.54;94257.34;4995031;28;20115;-78
2023/09/16 03:59:14;;;;;;;19.17;12.68;;;;;;;20.73;57.06;94272.22;4994910;28;20029;-77
2023/09/16 04:01:40;;;;;;;15.43;12.80;;;;;;;20.66;56.91;94266.69;4991246;28;20144;-78
2023/09/16 04:04:06;;;;;;;15.95;13.27;;;;;;;20.72;57.21;94278.75;4976510;28;20148;-78
2023/09/16 04:06:31;;;;;;;18.30;12.60;;;;;;;20.80;57.26;94299.31;4994216;28;20075;-76
2023/09/16 04:08:56;;;;;;;16.00;13.40;;;;;;;20.77;57.27;94302.75;4991884;28;20022;-77
2023/09/16 04:11:22;;;;;;;20.08;13.98;;;;;;;20.67;58.08;94289.88;4995500;28;20562;-79
2023/09/16 04:13:47;;;;;;;16.65;14.13;;;;;;;20.69;58.05;94292.97;4992957;28;20505;-78
2023/09/16 04:16:13;;;;;;;16.60;13.18;;;;;;;20.70;58.45;94292.63;4995016;28;20041;-80
2023/09/16 04:18:39;;;;;;;17.88;13.73;;;;;;;20.71;58.90;94301.50;4995300;28;20041;-80
2023/09/16 04:21:06;;;;;;;16.42;13.48;;;;;;;20.69;59.05;94301.88;4996977;28;20034;-79
2023/09/16 04:23:32;;;;;;;17.75;14.60;;;;;;;20.72;59.34;94308.47;4976922;28;20770;-78
2023/09/16 04:26:00;;;;;;;18.02;13.95;;;;;;;20.64;59.51;94290.59;4994296;28;20153;-79
2023/09/16 04:28:25;;;;;;;17.95;14.90;;;;;;;20.67;59.68;94298.78;4993509;28;20136;-78
2023/09/16 04:30:53;;;;;;;18.52;14.02;;;;;;;20.68;59.40;94302.25;4997186;28;20117;-79
2023/09/16 04:33:19;;;;;;;17.00;14.23;;;;;;;20.69;59.69;94312.69;4996420;28;20541;-80
2023/09/16 04:35:49;;;;;;;15.63;13.40;;;;;;;20.66;59.67;94307.22;4989218;28;20041;-79
2023/09/16 04:38:16;;;;;;;26.30;15.50;;;;;;;20.65;59.46;94319.97;4996207;28;20133;-79
2023/09/16 04:40:42;;;;;;;16.92;13.90;;;;;;;20.67;59.63;94316.91;4990898;28;20121;-78
2023/09/16 04:43:09;;;;;;;18.02;13.80;;;;;;;20.63;59.43;94311.44;4995747;28;20497;-78
2023/09/16 04:45:34;;;;;;;17.80;14.93;;;;;;;20.67;59.40;94317.69;4993415;28;20064;-77
2023/09/16 04:48:00;;;;;;;20.38;15.48;;;;;;;20.63;59.46;94321.50;4997064;28;20022;-79
2023/09/16 04:50:28;;;;;;;16.95;14.30;;;;;;;20.49;59.67;94295.78;4976552;28;20129;-79
2023/09/16 04:52:54;;;;;;;16.15;14.30;;;;;;;20.58;59.72;94303.66;4976757;28;20049;-78
2023/09/16 04:55:20;;;;;;;22.15;15.23;;;;;;;20.53;59.43;94307.44;4995921;28;20037;-78
2023/09/16 04:57:46;;;;;;;18.95;14.90;;;;;;;20.68;59.74;94334.69;4993528;28;20033;-78
2023/09/16 05:00:11;;;;;;;17.90;13.57;;;;;;;20.66;59.76;94321.53;4980089;28;20056;-79
2023/09/16 05:02:37;;;;;;;16.15;14.25;;;;;;;20.69;59.69;94320.00;4970489;28;20941;-77
2023/09/16 05:05:02;;;;;;;16.80;14.57;;;;;;;20.68;59.76;94323.88;4989365;28;20064;-78
2023/09/16 05:07:28;;;;;;;20.73;15.43;;;;;;;20.65;59.78;94338.09;4993272;28;20046;-79
2023/09/16 05:09:56;;;;;;;18.52;15.85;;;;;;;20.62;60.17;94326.13;4992678;28;20516;-78
2023/09/16 05:12:21;;;;;;;20.02;15.20;;;;;;;20.38;60.38;94292.19;4994383;28;20065;-79
2023/09/16 05:14:46;;;;;;;19.88;15.07;;;;;;;20.58;61.01;94320.63;4995885;28;20149;-78
2023/09/16 05:17:12;;;;;;;21.42;16.30;;;;;;;20.58;60.62;94326.03;4991386;28;20057;-78
2023/09/16 05:19:37;;;;;;;17.67;15.40;;;;;;;20.56;60.67;94338.38;4975448;28;20527;-78
2023/09/16 05:22:04;;;;;;;17.85;15.80;;;;;;;20.49;60.99;94322.81;4981600;28;20617;-78
2023/09/16 05:24:33;;;;;;;16.70;15.00;;;;;;;20.54;61.28;94333.31;5000366;28;20572;-77
2023/09/16 05:26:59;;;;;;;18.95;15.45;;;;;;;20.51;61.33;94328.66;4995300;28;20112;-77
2023/09/16 05:29:25;;;;;;;21.88;16.10;;;;;;;20.46;61.55;94320.84;5000241;28;20038;-78
2023/09/16 05:31:51;;;;;;;17.83;15.95;;;;;;;20.33;61.51;94299.81;4998787;28;20080;-79
2023/09/16 05:34:17;;;;;;;18.75;14.63;;;;;;;20.51;61.43;94334.06;4995275;28;20405;-79
2023/09/16 05:36:42;;;;;;;18.98;14.18;;;;;;;20.43;61.28;94324.28;4999625;28;20065;-77
2023/09/16 05:39:07;;;;;;;17.38;14.30;;;;;;;20.39;61.33;94328.84;4998462;28;20072;-78
2023/09/16 05:41:35;;;;;;;15.32;13.73;;;;;;;20.58;61.20;94355.75;4996798;28;20077;-79
2023/09/16 05:44:01;;;;;;;21.08;14.88;;;;;;;20.49;61.69;94365.25;4996764;28;20121;-79
2023/09/16 05:46:28;;;;;;;23.40;13.85;;;;;;;20.39;62.18;94361.25;4995650;28;20053;-79
2023/09/16 05:49:06;;;;;;;14.68;10.32;;;;;;;20.15;61.73;94319.16;4997462;28;20698;-79
2023/09/16 05:51:33;;;;;;;13.07;10.38;;;;;;;20.21;62.31;94337.81;4996388;28;20033;-79
2023/09/16 05:53:59;;;;;;;9.65;7.28;;;;;;;20.12;62.04;94329.91;5001322;28;20495;-79
2023/09/16 05:56:24;;;;;;;9.30;6.88;;;;;;;19.97;61.56;94311.91;4995720;28;20053;-80
2023/09/16 05:58:50;;;;;;;10.82;7.47;;;;;;;20.08;62.12;94350.69;4998359;28;20037;-79
2023/09/16 06:01:15;;;;;;;11.98;8.35;;;;;;;20.01;62.74;94351.34;4995426;28;20058;-79
2023/09/16 06:03:40;;;;;;;12.55;7.20;;;;;;;20.10;63.03;94364.59;4997127;28;20060;-79
2023/09/16 06:06:06;;;;;;;9.80;7.63;;;;;;;19.90;63.26;94327.97;4998527;28;20029;-79
2023/09/16 06:08:31;;;;;;;12.18;8.68;;;;;;;20.07;63.74;94357.22;4998701;28;20515;-79
2023/09/16 06:10:57;;;;;;;13.73;8.43;;;;;;;20.12;63.27;94362.31;4995608;28;20033;-80
2023/09/16 06:13:22;;;;;;;9.05;7.57;;;;;;;20.05;63.48;94346.78;4997241;28;20050;-79
2023/09/16 06:15:48;;;;;;;10.80;7.60;;;;;;;20.11;62.86;94349.97;4997061;28;20771;-79
2023/09/16 06:18:13;;;;;;;13.13;8.63;;;;;;;20.12;63.21;94351.53;4976380;28;21131;-79
2023/09/16 06:20:39;;;;;;;12.85;9.25;;;;;;;20.06;63.39;94331.34;4994705;28;20413;-79
2023/09/16 06:23:05;;;;;;;14.38;10.00;;;;;;;20.05;63.82;94325.16;4990599;28;20046;-79
2023/09/16 06:25:33;;;;;;;17.20;10.57;;;;;;;20.03;63.92;94321.28;4996228;28;20470;-79
2023/09/16 06:27:59;;;;;;;15.43;11.73;;;;;;;20.09;64.05;94325.25;4975742;28;20184;-78
2023/09/16 06:30:25;;;;;;;18.35;13.20;;;;;;;20.03;63.92;94342.88;4975625;28;20179;-79
2023/09/16 06:32:52;;;;;;;17.83;13.60;;;;;;;19.99;63.70;94339.34;4996848;28;20028;-80
2023/09/16 06:35:18;;;;;;;18.48;13.95;;;;;;;19.90;63.83;94326.06;4996170;28;20423;-79
2023/09/16 06:37:43;;;;;;;15.75;13.45;;;;;;;20.04;63.84;94349.84;4997349;28;20060;-78
2023/09/16 06:40:09;;;;;;;15.57;13.88;;;;;;;20.03;63.90;94356.38;4975688;28;20042;-78
2023/09/16 06:42:35;;;;;;;20.63;16.55;;;;;;;20.14;63.67;94376.25;4958807;28;20130;-79
2023/09/16 06:45:00;;;;;;;25.10;17.08;;;;;;;20.10;64.25;94375.38;4997839;28;20642;-79
2023/09/16 06:47:29;;;;;;;22.48;16.92;;;;;;;20.11;64.47;94360.75;4999038;28;20052;-79
2023/09/16 06:49:56;;;;;;;23.88;16.38;;;;;;;20.16;64.28;94374.78;4994914;28;20034;-79
2023/09/16 06:52:22;;;;;;;19.98;16.90;;;;;;;20.18;64.62;94387.94;4997937;28;20068;-79
2023/09/16 06:54:50;;;;;;;23.20;16.23;;;;;;;20.15;64.96;94378.59;4975543;28;21072;-79
2023/09/16 06:57:16;;;;;;;21.38;15.75;;;;;;;20.13;65.05;94385.50;4998672;28;20030;-79
2023/09/16 06:59:46;;;;;;;15.43;13.63;;;;;;;19.82;65.05;94358.69;4994930;28;20064;-79
2023/09/16 07:02:11;;;;;;;15.25;11.35;;;;;;;19.76;64.79;94369.00;4995729;28;20061;-80
2023/09/16 07:04:40;;;;;;;13.95;11.57;;;;;;;19.77;65.19;94369.78;4995295;28;20034;-80
2023/09/16 07:07:06;;;;;;;12.75;9.20;;;;;;;19.75;65.90;94365.53;4996724;28;20048;-79
2023/09/16 07:09:32;;;;;;;14.60;11.10;;;;;;;19.82;65.08;94375.66;4992900;28;20030;-78
2023/09/16 07:11:57;;;;;;;16.58;12.82;;;;;;;19.84;65.14;94378.81;4993716;28;20536;-79
2023/09/16 07:14:22;;;;;;;20.67;15.18;;;;;;;19.94;64.96;94394.41;4998876;28;20129;-79
2023/09/16 07:16:48;;;;;;;18.27;14.20;;;;;;;19.92;65.17;94383.19;4997552;28;20460;-79
2023/09/16 07:19:13;;;;;;;17.95;13.45;;;;;;;19.95;64.84;94384.38;4993528;28;20043;-79
2023/09/16 07:21:39;;;;;;;18.20;14.82;;;;;;;19.96;65.14;94380.53;4994935;28;20053;-79
2023/09/16 07:24:05;;;;;;;23.13;14.70;;;;;;;19.92;65.37;94366.22;4997776;28;20038;-79
2023/09/16 07:26:30;;;;;;;20.55;16.10;;;;;;;19.96;65.26;94375.16;4994536;28;20056;-78
2023/09/16 07:28:57;;;;;;;19.92;14.77;;;;;;;20.06;65.63;94396.16;4994559;28;20044;-79
2023/09/16 07:31:23;;;;;;;21.10;16.10;;;;;;;20.03;65.96;94380.69;4995466;28;20788;-79
2023/09/16 07:33:48;;;;;;;22.83;19.17;;;;;;;19.74;66.43;94350.50;4992855;28;20038;-78
2023/09/16 07:36:14;;;;;;;22.05;17.58;;;;;;;19.92;66.76;94356.19;4995258;28;20920;-78
2023/09/16 07:38:39;;;;;;;26.38;19.65;;;;;;;19.91;66.69;94359.25;4993899;28;20069;-78
2023/09/16 07:41:04;;;;;;;22.10;19.52;;;;;;;19.96;66.57;94358.94;4980392;28;20061;-79
2023/09/16 07:43:30;;;;;;;27.58;18.98;;;;;;;20.08;66.90;94372.28;4995316;28;20041;-78
2023/09/16 07:45:56;;;;;;;21.55;17.27;;;;;;;20.04;66.49;94382.25;4992048;28;20174;-78
2023/09/16 07:48:22;;;;;;;21.98;18.67;;;;;;;20.10;66.65;94399.69;4995160;28;20037;-78
2023/09/16 07:50:48;;;;;;;24.65;18.23;;;;;;;20.09;66.57;94395.47;4993496;28;20046;-80
2023/09/16 07:53:15;;;;;;;20.40;18.20;;;;;;;20.15;66.52;94411.00;4996498;28;20034;-79
2023/09/16 07:55:41;;;;;;;22.58;18.10;;;;;;;20.20;66.48;94406.44;4994423;28;20037;-80
2023/09/16 07:58:06;;;;;;;22.10;18.27;;;;;;;20.12;65.76;94398.22;4977955;28;20046;-80
2023/09/16 08:00:33;;;;;;;20.58;17.13;;;;;;;20.23;66.09;94417.34;4991254;28;20101;-80
2023/09/16 08:02:58;;;;;;;20.48;16.88;;;;;;;20.22;65.74;94412.28;4997675;28;20038;-80
2023/09/16 08:05:24;;;;;;;25.35;19.33;;;;;;;20.19;65.91;94402.97;4994193;28;20053;-77
2023/09/16 08:07:49;;;;;;;27.42;19.90;;;;;;;20.20;65.73;94387.53;4976464;28;20116;-81
2023/09/16 08:10:15;;;;;;;19.48;17.38;;;;;;;20.29;65.34;94398.91;4975210;28;20041;-80
2023/09/16 08:12:40;;;;;;;24.10;17.77;;;;;;;20.25;65.76;94392.66;4976087;28;20100;-80
2023/09/16 08:15:09;;;;;;;22.50;18.70;;;;;;;20.16;65.79;94373.97;4995333;28;20026;-80
2023/09/16 08:17:35;;;;;;;21.08;18.83;;;;;;;20.16;65.99;94379.38;4997928;28;20045;-80
2023/09/16 08:20:00;;;;;;;23.42;18.42;;;;;;;20.22;65.90;94383.38;4992833;28;20034;-80
2023/09/16 08:22:28;;;;;;;20.75;18.55;;;;;;;20.25;65.31;94385.34;4993517;28;20049;-80
2023/09/16 08:24:54;;;;;;;26.48;19.38;;;;;;;20.33;65.36;94389.72;4979185;28;20166;-79
2023/09/16 08:27:21;;;;;;;22.55;19.40;;;;;;;20.31;66.25;94373.09;4994786;28;20025;-80
2023/09/16 08:29:46;;;;;;;23.70;21.20;;;;;;;20.37;66.47;94395.19;4995670;28;20039;-80
2023/09/16 08:32:12;;;;;;;30.50;24.08;;;;;;;20.29;66.18;94383.47;4993289;28;20042;-80
2023/09/16 08:34:37;;;;;;;26.85;23.23;;;;;;;20.35;66.39;94397.47;4994504;28;20472;-81
2023/09/16 08:37:03;;;;;;;25.45;22.33;;;;;;;20.24;65.62;94383.75;4997350;28;20042;-80
2023/09/16 08:39:28;;;;;;;27.25;24.38;;;;;;;20.33;65.71;94395.13;4968052;28;20084;-77
2023/09/16 08:42:07;;;;;;;28.17;23.73;;;;;;;20.31;66.19;94397.41;4995499;28;20710;-78
2023/09/16 08:44:41;;;;;;;25.10;21.83;;;;;;;20.44;65.85;94419.59;4997746;28;20037;-80
2023/09/16 08:47:19;;;;;;;27.67;23.17;;;;;;;20.42;66.38;94409.19;4996759;28;20045;-80
2023/09/16 08:49:50;;;;;;;24.23;21.17;;;;;;;20.43;66.35;94424.25;4970181;28;20030;-80
2023/09/16 08:52:17;;;;;;;25.73;21.70;;;;;;;20.46;66.08;94431.63;4985108;28;20158;-80
2023/09/16 08:54:45;;;;;;;27.33;21.27;;;;;;;20.50;66.12;94437.06;4990111;28;20954;-80
2023/09/16 08:57:12;;;;;;;25.73;22.92;;;;;;;20.36;66.72;94426.81;4993767;28;20037;-80
2023/09/16 08:59:39;;;;;;;27.40;22.00;;;;;;;20.33;66.46;94427.53;4971606;28;20431;-80
2023/09/16 09:02:06;;;;;;;25.77;20.52;;;;;;;20.37;65.84;94417.59;4986286;28;20058;-80
2023/09/16 09:04:32;;;;;;;21.85;19.42;;;;;;;20.32;66.08;94409.78;4992543;28;20592;-80
2023/09/16 09:07:00;;;;;;;22.67;20.17;;;;;;;20.44;66.24;94433.91;4994221;28;20376;-81
2023/09/16 09:09:26;;;;;;;21.10;18.92;;;;;;;20.46;65.67;94434.31;4993858;28;20085;-81
2023/09/16 09:11:55;;;;;;;21.75;19.55;;;;;;;20.39;65.34;94404.47;4993432;28;20057;-81
2023/09/16 09:14:23;;;;;;;23.83;20.67;;;;;;;20.75;64.69;94440.97;4994652;28;20181;-81
2023/09/16 09:16:49;;;;;;;24.45;19.58;;;;;;;20.65;64.59;94416.47;4989682;28;20140;-80
2023/09/16 09:19:15;;;;;;;23.63;20.15;;;;;;;20.55;64.30;94413.25;4990520;28;20042;-80
2023/09/16 09:21:43;;;;;;;19.45;17.42;;;;;;;20.68;64.27;94437.38;4991195;28;20057;-81
2023/09/16 09:24:08;;;;;;;22.50;19.02;;;;;;;20.61;64.82;94421.84;4992389;28;20026;-80
2023/09/16 09:26:34;;;;;;;22.27;19.15;;;;;;;20.68;64.94;94426.59;4992404;28;20080;-81
2023/09/16 09:28:59;;;;;;;18.33;16.33;;;;;;;20.81;64.38;94436.81;4994401;28;20431;-81
2023/09/16 09:31:26;;;;;;;19.33;17.42;;;;;;;20.75;63.40;94426.69;4992777;28;20037;-80
2023/09/16 09:33:53;;;;;;;22.10;18.35;;;;;;;20.86;63.40;94430.34;4976599;28;20041;-81
2023/09/16 09:36:18;;;;;;;19.67;17.25;;;;;;;20.80;63.17;94424.44;4976505;28;20025;-80
2023/09/16 09:38:45;;;;;;;20.75;17.23;;;;;;;20.84;63.23;94427.19;4992245;28;20053;-81
2023/09/16 09:41:11;;;;;;;19.27;16.83;;;;;;;20.75;62.48;94399.66;4994345;28;20048;-81
2023/09/16 09:43:37;;;;;;;17.73;15.85;;;;;;;20.94;63.42;94423.91;4994511;28;20073;-80
2023/09/16 09:46:03;;;;;;;18.88;17.08;;;;;;;20.94;63.02;94418.50;4992446;28;20104;-82
2023/09/16 09:48:32;;;;;;;20.27;16.75;;;;;;;20.97;62.82;94423.19;4976323;28;20160;-78
2023/09/16 09:50:59;;;;;;;18.88;16.75;;;;;;;21.01;62.67;94416.69;4992568;28;20128;-83
2023/09/16 09:53:26;;;;;;;18.80;16.08;;;;;;;21.07;63.19;94416.38;4995332;28;20049;-83
2023/09/16 09:55:52;;;;;;;19.63;17.00;;;;;;;20.89;62.16;94399.88;4995354;28;20132;-82
2023/09/16 09:58:18;;;;;;;22.00;17.30;;;;;;;20.93;62.62;94400.72;4989953;28;20502;-83
2023/09/16 10:00:49;;;;;;;19.90;17.25;;;;;;;21.02;63.20;94420.19;4992984;28;20064;-83
2023/09/16 10:03:14;;;;;;;20.30;17.15;;;;;;;20.96;61.94;94403.50;4976247;28;20613;-82
2023/09/16 10:05:41;;;;;;;20.35;16.60;;;;;;;20.82;61.92;94386.25;4995942;28;20056;-82
2023/09/16 10:08:06;;;;;;;21.08;17.27;;;;;;;21.12;62.14;94408.72;4999790;28;20050;-83
2023/09/16 10:10:32;;;;;;;19.55;17.08;;;;;;;20.98;62.73;94386.88;4996762;28;20049;-83
2023/09/16 10:12:58;;;;;;;19.77;16.73;;;;;;;21.05;62.43;94410.56;4981095;28;20598;-83
2023/09/16 10:15:24;;;;;;;21.65;16.52;;;;;;;21.07;62.44;94395.50;4997075;28;20080;-83
2023/09/16 10:17:50;;;;;;;17.13;15.43;;;;;;;21.09;60.92;94393.22;4982720;28;20666;-82
2023/09/16 10:20:16;;;;;;;19.40;16.05;;;;;;;21.11;63.12;94388.25;4996029;28;20038;-82
2023/09/16 10:22:43;;;;;;;17.33;15.52;;;;;;;21.09;63.41;94390.53;4999052;28;20030;-82
2023/09/16 10:25:11;;;;;;;15.85;13.75;;;;;;;20.83;62.07;94401.31;4998783;28;20072;-83
2023/09/16 10:27:52;;;;;;;15.07;12.93;;;;;;;21.02;61.59;94398.56;4996270;28;20022;-82
2023/09/16 10:30:18;;;;;;;13.90;11.98;;;;;;;21.08;61.30;94396.28;4981820;28;20026;-83
2023/09/16 10:32:44;;;;;;;13.23;11.82;;;;;;;21.10;59.06;94375.88;4998812;28;20033;-83
2023/09/16 10:35:09;;;;;;;15.52;12.43;;;;;;;21.20;59.05;94377.16;4996194;28;20037;-82
2023/09/16 10:37:36;;;;;;;14.40;12.05;;;;;;;21.23;58.10;94368.28;4996849;28;20673;-81
2023/09/16 10:40:04;;;;;;;16.92;13.32;;;;;;;21.42;57.95;94395.97;4996194;28;20455;-82
2023/09/16 10:42:32;;;;;;;14.80;11.50;;;;;;;21.37;57.25;94382.78;4996812;28;20025;-83
2023/09/16 10:45:01;;;;;;;14.80;11.77;;;;;;;21.38;56.57;94386.25;4980252;28;20018;-83
2023/09/16 10:47:27;;;;;;;14.60;11.93;;;;;;;21.47;59.50;94384.06;4993100;28;20134;-82
2023/09/16 10:49:53;;;;;;;14.35;12.05;;;;;;;21.46;58.44;94385.97;4995493;28;20030;-82
2023/09/16 10:52:24;;;;;;;14.32;12.82;;;;;;;21.40;58.25;94376.66;4995643;28;20832;-81
2023/09/16 10:55:22;;;;;;;14.10;12.70;;;;;;;21.51;58.66;94376.00;4993509;28;20037;-82
2023/09/16 10:58:17;;;;;;;18.40;13.63;;;;;;;21.46;59.23;94369.75;4996346;28;20313;-81
2023/09/16 11:00:54;;;;;;;14.23;12.40;;;;;;;21.54;60.65;94377.97;4964644;28;20041;-82
2023/09/16 11:03:25;;;;;;;12.43;10.43;;;;;;;21.52;58.30;94358.59;4993192;28;20046;-83
2023/09/16 11:05:50;;;;;;;13.13;11.82;;;;;;;21.63;57.33;94367.66;4976390;28;20062;-82
2023/09/16 11:08:16;;;;;;;17.38;11.60;;;;;;;21.65;61.32;94366.16;4998760;28;20125;-83
2023/09/16 11:10:42;;;;;;;12.25;11.02;;;;;;;21.64;59.32;94358.38;4992213;28;20338;-82
2023/09/16 11:13:08;;;;;;;13.38;11.93;;;;;;;21.46;59.33;94353.50;4993154;28;20073;-82
2023/09/16 11:15:34;;;;;;;14.60;12.25;;;;;;;21.53;59.75;94343.91;4993552;28;20103;-83